createdAt,value
2019-03-09T00:00:24.301Z,91.30
2019-03-09T00:02:51.589Z,91.50
2019-03-09T00:05:18.487Z,91.70
2019-03-09T00:07:45.413Z,91.90
2019-03-09T00:10:12.311Z,91.90
2019-03-09T00:12:39.221Z,91.80
2019-03-09T00:15:07.332Z,91.80
2019-03-09T00:17:34.213Z,91.60
2019-03-09T00:20:01.124Z,91.40
2019-03-09T00:22:28.101Z,91.40
2019-03-09T00:24:56.842Z,91.70
2019-03-09T00:27:30.121Z,91.90
2019-03-09T00:30:04.647Z,92.00
2019-03-09T00:32:31.570Z,92.30
2019-03-09T00:34:58.498Z,92.30
2019-03-09T00:38:47.761Z,92.20
2019-03-09T00:41:14.560Z,92.40
2019-03-09T00:43:41.577Z,92.50
2019-03-09T00:46:08.366Z,92.50
2019-03-09T00:48:35.301Z,92.50
2019-03-09T00:51:02.085Z,92.30
2019-03-09T00:53:28.918Z,92.40
2019-03-09T00:55:55.706Z,92.50
2019-03-09T00:58:22.521Z,92.60
2019-03-09T01:00:49.336Z,92.80
2019-03-09T01:03:16.156Z,92.70
2019-03-09T01:05:43.339Z,92.80
2019-03-09T01:08:10.386Z,92.90
2019-03-09T01:10:37.181Z,92.90
2019-03-09T01:13:04.005Z,92.50
2019-03-09T01:15:30.893Z,92.40
2019-03-09T01:17:57.717Z,92.30
2019-03-09T01:20:24.652Z,92.60
2019-03-09T01:22:51.450Z,92.80
2019-03-09T01:25:18.300Z,92.80
2019-03-09T01:27:45.188Z,92.70
2019-03-09T01:30:15.520Z,92.70
2019-03-09T01:32:42.310Z,92.20
2019-03-09T01:35:09.200Z,92.20
2019-03-09T01:37:36.017Z,92.20
2019-03-09T01:40:06.105Z,92.30
2019-03-09T01:42:32.933Z,92.30
2019-03-09T01:44:59.718Z,92.20
2019-03-09T01:47:26.533Z,92.10
2019-03-09T01:49:53.325Z,92.10
2019-03-09T01:52:20.148Z,92.00
2019-03-09T01:54:46.928Z,91.90
2019-03-09T01:57:16.056Z,92.00
2019-03-09T01:59:42.746Z,92.10
2019-03-09T02:02:09.532Z,92.10
2019-03-09T02:04:36.345Z,92.10
2019-03-09T02:07:03.169Z,92.00
2019-03-09T02:09:29.948Z,91.80
2019-03-09T02:11:56.764Z,91.80
2019-03-09T02:14:23.587Z,91.70
2019-03-09T02:16:50.734Z,91.80
2019-03-09T02:19:17.545Z,91.70
2019-03-09T02:21:45.709Z,91.90
2019-03-09T02:24:12.500Z,91.80
2019-03-09T02:26:39.320Z,91.70
2019-03-09T02:29:06.143Z,91.90
2019-03-09T02:31:32.929Z,91.60
2019-03-09T02:33:59.752Z,91.50
2019-03-09T02:36:26.629Z,91.40
2019-03-09T02:38:55.254Z,91.30
2019-03-09T02:41:22.061Z,91.40
2019-03-09T02:43:48.980Z,91.40
2019-03-09T02:46:15.757Z,91.00
2019-03-09T02:48:42.577Z,90.80
2019-03-09T02:51:09.396Z,90.80
2019-03-09T02:53:36.183Z,91.00
2019-03-09T02:56:02.992Z,91.20
2019-03-09T02:58:29.811Z,90.80
2019-03-09T03:01:16.925Z,90.90
2019-03-09T03:03:43.789Z,91.00
2019-03-09T03:06:10.574Z,91.30
2019-03-09T03:08:37.401Z,91.80
2019-03-09T03:11:04.222Z,91.70
2019-03-09T03:13:30.996Z,91.70
2019-03-09T03:15:57.817Z,91.50
2019-03-09T03:18:24.636Z,91.50
2019-03-09T03:20:51.415Z,91.20
2019-03-09T03:23:18.233Z,91.40
2019-03-09T03:25:45.058Z,91.00
2019-03-09T03:28:11.911Z,91.10
2019-03-09T03:30:38.761Z,90.90
2019-03-09T03:33:05.596Z,91.00
2019-03-09T03:35:33.363Z,91.00
2019-03-09T03:38:00.213Z,91.20
2019-03-09T03:40:27.000Z,92.30
2019-03-09T03:42:53.817Z,93.70
2019-03-09T03:45:20.640Z,93.70
2019-03-09T03:47:47.420Z,93.70
2019-03-09T03:50:14.449Z,93.60
2019-03-09T03:52:41.241Z,93.20
2019-03-09T03:55:09.165Z,93.20
2019-03-09T03:57:35.988Z,93.50
2019-03-09T04:00:06.466Z,93.80
2019-03-09T04:02:33.288Z,93.50
2019-03-09T04:05:00.119Z,93.50
2019-03-09T04:07:27.187Z,94.10
2019-03-09T04:09:54.000Z,93.90
2019-03-09T04:12:20.820Z,93.90
2019-03-09T04:14:47.598Z,94.40
2019-03-09T04:17:14.417Z,93.80
2019-03-09T04:19:42.604Z,94.10
2019-03-09T04:22:09.378Z,94.10
2019-03-09T04:24:37.991Z,94.30
2019-03-09T04:27:04.810Z,94.60
2019-03-09T04:29:31.590Z,94.60
2019-03-09T04:31:58.396Z,94.00
2019-03-09T04:34:25.280Z,93.80
2019-03-09T04:37:01.241Z,93.90
2019-03-09T04:39:28.397Z,94.00
2019-03-09T04:41:55.480Z,93.80
2019-03-09T04:44:22.297Z,93.40
2019-03-09T04:46:49.080Z,93.80
2019-03-09T04:49:15.900Z,93.50
2019-03-09T04:51:42.706Z,93.70
2019-03-09T04:54:09.513Z,93.30
2019-03-09T04:56:36.341Z,93.90
2019-03-09T04:59:03.123Z,93.20
2019-03-09T05:01:29.949Z,93.70
2019-03-09T05:04:16.756Z,93.50
2019-03-09T05:06:43.580Z,93.50
2019-03-09T05:09:30.920Z,94.10
2019-03-09T05:11:57.745Z,94.80
2019-03-09T05:14:24.560Z,93.60
2019-03-09T05:16:51.343Z,93.30
2019-03-09T05:19:18.161Z,93.00
2019-03-09T05:21:44.941Z,93.10
2019-03-09T05:24:11.761Z,93.10
2019-03-09T05:26:38.540Z,93.50
2019-03-09T05:29:05.374Z,93.50
2019-03-09T05:31:32.148Z,94.40
2019-03-09T05:33:58.972Z,94.70
2019-03-09T05:36:25.748Z,95.00
2019-03-09T05:38:52.605Z,94.70
2019-03-09T05:41:19.384Z,94.50
2019-03-09T05:43:46.207Z,94.50
2019-03-09T05:46:13.033Z,94.80
2019-03-09T05:48:39.812Z,95.00
2019-03-09T05:51:06.631Z,94.60
2019-03-09T05:53:33.411Z,94.80
2019-03-09T05:56:00.241Z,94.70
2019-03-09T05:58:27.056Z,94.20
2019-03-09T06:00:53.837Z,94.10
2019-03-09T06:03:20.651Z,94.00
2019-03-09T06:05:48.977Z,93.80
2019-03-09T06:08:15.749Z,93.70
2019-03-09T06:10:42.577Z,92.90
2019-03-09T06:13:09.356Z,92.70
2019-03-09T06:15:36.181Z,92.10
2019-03-09T06:18:02.977Z,92.40
2019-03-09T06:20:29.800Z,91.70
2019-03-09T06:22:56.600Z,91.30
2019-03-09T06:25:23.443Z,91.30
2019-03-09T06:27:50.208Z,90.30
2019-03-09T06:30:17.428Z,90.40
2019-03-09T06:33:04.369Z,90.00
2019-03-09T06:35:31.189Z,89.70
2019-03-09T06:38:30.681Z,89.30
2019-03-09T06:41:03.006Z,89.10
2019-03-09T06:43:26.188Z,88.80
2019-03-09T06:45:53.006Z,88.40
2019-03-09T06:48:19.795Z,88.10
2019-03-09T06:50:46.614Z,87.70
2019-03-09T06:53:13.383Z,87.70
2019-03-09T06:55:40.215Z,87.70
2019-03-09T06:58:07.000Z,86.80
2019-03-09T07:00:35.921Z,87.20
2019-03-09T07:03:02.704Z,87.00
2019-03-09T07:05:29.511Z,87.10
2019-03-09T07:07:56.531Z,86.30
2019-03-09T07:10:23.298Z,86.70
2019-03-09T07:12:50.114Z,86.30
2019-03-09T07:15:23.303Z,86.50
2019-03-09T07:17:51.528Z,86.50
2019-03-09T07:20:18.316Z,87.10
2019-03-09T07:22:45.133Z,87.70
2019-03-09T07:25:12.033Z,87.70
2019-03-09T07:27:38.840Z,86.90
2019-03-09T07:30:11.935Z,89.20
2019-03-09T07:32:38.716Z,89.00
2019-03-09T07:35:07.247Z,90.40
2019-03-09T07:37:34.026Z,91.30
2019-03-09T07:40:00.947Z,92.70
2019-03-09T07:42:27.749Z,93.70
2019-03-09T07:44:54.564Z,94.10
2019-03-09T07:47:21.399Z,94.60
2019-03-09T07:49:48.517Z,95.90
2019-03-09T07:52:30.365Z,95.90
2019-03-09T07:54:57.151Z,94.90
2019-03-09T07:57:23.968Z,94.00
2019-03-09T07:59:50.793Z,94.20
2019-03-09T08:02:17.583Z,93.80
2019-03-09T08:04:44.430Z,94.70
2019-03-09T08:07:11.233Z,95.00
2019-03-09T08:09:38.049Z,95.20
2019-03-09T08:12:04.869Z,95.10
2019-03-09T08:14:31.658Z,96.00
2019-03-09T08:16:58.501Z,95.10
2019-03-09T08:19:25.317Z,95.00
2019-03-09T08:21:52.160Z,93.80
2019-03-09T08:24:18.982Z,93.60
2019-03-09T08:26:45.778Z,93.40
2019-03-09T08:29:12.634Z,93.30
2019-03-09T08:31:39.520Z,93.80
2019-03-09T08:34:06.361Z,93.70
2019-03-09T08:36:35.014Z,92.60
2019-03-09T08:39:01.813Z,92.70
2019-03-09T08:41:28.814Z,92.80
2019-03-09T08:43:56.193Z,92.30
2019-03-09T08:46:23.000Z,92.20
2019-03-09T08:48:49.886Z,92.50
2019-03-09T08:51:16.703Z,91.60
2019-03-09T08:53:43.572Z,91.80
2019-03-09T08:56:12.746Z,92.20
2019-03-09T08:58:39.587Z,91.80
2019-03-09T09:01:06.358Z,90.50
2019-03-09T09:03:33.150Z,90.60
2019-03-09T09:05:59.965Z,89.90
2019-03-09T09:08:26.744Z,90.00
2019-03-09T09:10:53.585Z,89.00
2019-03-09T09:13:20.381Z,88.40
2019-03-09T09:15:47.201Z,89.20
2019-03-09T09:18:14.001Z,88.30
2019-03-09T09:20:40.853Z,88.40
2019-03-09T09:23:09.650Z,87.90
2019-03-09T09:25:36.478Z,87.20
2019-03-09T09:28:03.365Z,87.10
2019-03-09T09:30:30.483Z,86.70
2019-03-09T09:32:57.627Z,87.00
2019-03-09T09:35:24.430Z,86.80
2019-03-09T09:37:51.893Z,86.80
2019-03-09T09:40:23.244Z,86.80
2019-03-09T09:42:50.138Z,87.70
2019-03-09T09:45:16.961Z,87.30
2019-03-09T09:47:43.799Z,86.30
2019-03-09T09:50:12.533Z,87.90
2019-03-09T09:52:39.368Z,86.60
2019-03-09T09:55:09.170Z,86.10
2019-03-09T09:57:35.942Z,86.40
2019-03-09T10:00:05.508Z,86.30
2019-03-09T10:02:32.309Z,85.40
2019-03-09T10:04:59.098Z,84.60
2019-03-09T10:07:25.972Z,85.60
2019-03-09T10:09:52.856Z,85.20
2019-03-09T10:12:19.637Z,84.50
2019-03-09T10:14:46.474Z,85.00
2019-03-09T10:17:13.498Z,84.80
2019-03-09T10:19:40.288Z,84.50
2019-03-09T10:22:07.108Z,83.60
2019-03-09T10:24:34.004Z,83.10
2019-03-09T10:27:00.788Z,83.70
2019-03-09T10:29:27.688Z,82.90
2019-03-09T10:31:54.537Z,82.10
2019-03-09T10:34:21.329Z,81.20
2019-03-09T10:36:48.142Z,81.60
2019-03-09T10:39:14.965Z,81.30
2019-03-09T10:41:42.402Z,81.50
2019-03-09T10:44:09.221Z,82.10
2019-03-09T10:46:36.040Z,82.20
2019-03-09T10:49:02.825Z,82.10
2019-03-09T10:51:29.670Z,80.80
2019-03-09T10:53:56.479Z,81.80
2019-03-09T10:56:23.278Z,83.20
2019-03-09T10:58:50.100Z,83.20
2019-03-09T11:01:16.936Z,82.30
2019-03-09T11:03:43.720Z,82.20
2019-03-09T11:06:10.611Z,82.60
2019-03-09T11:08:37.396Z,81.90
2019-03-09T11:11:04.225Z,82.40
2019-03-09T11:13:31.014Z,82.50
2019-03-09T11:15:58.640Z,82.30
2019-03-09T11:18:25.468Z,83.00
2019-03-09T11:20:52.257Z,82.60
2019-03-09T11:23:19.085Z,82.90
2019-03-09T11:25:45.872Z,83.50
2019-03-09T11:28:12.734Z,82.20
2019-03-09T11:30:39.527Z,82.50
2019-03-09T11:33:06.336Z,82.10
2019-03-09T11:35:34.441Z,82.80
2019-03-09T11:38:01.261Z,82.50
2019-03-09T11:40:28.102Z,83.10
2019-03-09T11:42:54.913Z,83.20
2019-03-09T11:45:22.061Z,82.90
2019-03-09T11:47:48.885Z,82.70
2019-03-09T11:50:16.068Z,82.50
2019-03-09T11:52:42.906Z,82.30
2019-03-09T11:55:11.017Z,82.50
2019-03-09T11:57:39.125Z,82.00
2019-03-09T12:00:18.552Z,82.10
2019-03-09T12:02:45.500Z,82.00
2019-03-09T12:05:12.328Z,82.70
2019-03-09T12:07:39.119Z,82.50
2019-03-09T12:10:09.144Z,82.10
2019-03-09T12:12:35.973Z,81.40
2019-03-09T12:15:04.777Z,81.30
2019-03-09T12:17:31.637Z,81.00
2019-03-09T12:19:58.448Z,81.40
2019-03-09T12:22:25.268Z,81.80
2019-03-09T12:24:52.214Z,81.20
2019-03-09T12:27:19.034Z,80.50
2019-03-09T12:29:45.834Z,80.00
2019-03-09T12:32:12.674Z,80.50
2019-03-09T12:34:39.484Z,80.70
2019-03-09T12:37:06.334Z,80.70
2019-03-09T12:39:33.148Z,80.80
2019-03-09T12:41:59.972Z,79.60
2019-03-09T12:44:26.793Z,79.90
2019-03-09T12:46:53.613Z,80.00
2019-03-09T12:49:20.397Z,78.90
2019-03-09T12:51:47.221Z,79.00
2019-03-09T12:54:14.040Z,79.60
2019-03-09T12:56:40.828Z,78.60
2019-03-09T12:59:07.657Z,79.50
2019-03-09T13:01:34.452Z,79.40
2019-03-09T13:04:01.284Z,79.70
2019-03-09T13:06:28.070Z,78.30
2019-03-09T13:08:54.905Z,79.10
2019-03-09T13:11:21.709Z,78.00
2019-03-09T13:13:48.536Z,78.00
2019-03-09T13:16:15.328Z,77.90
2019-03-09T13:18:42.115Z,77.80
2019-03-09T13:21:09.040Z,77.70
2019-03-09T13:23:37.821Z,77.20
2019-03-09T13:26:04.661Z,77.70
2019-03-09T13:28:31.484Z,76.50
2019-03-09T13:30:58.271Z,76.30
2019-03-09T13:33:25.101Z,77.50
2019-03-09T13:35:51.885Z,77.60
2019-03-09T13:38:18.729Z,77.60
2019-03-09T13:40:45.549Z,77.90
2019-03-09T13:43:12.369Z,78.20
2019-03-09T13:45:39.275Z,79.00
2019-03-09T13:48:06.058Z,78.40
2019-03-09T13:50:32.864Z,78.20
2019-03-09T13:52:59.803Z,77.90
2019-03-09T13:55:26.807Z,78.70
2019-03-09T13:57:54.264Z,78.90
2019-03-09T14:00:23.024Z,79.20
2019-03-09T14:02:49.891Z,79.80
2019-03-09T14:05:16.721Z,79.70
2019-03-09T14:07:43.542Z,79.90
2019-03-09T14:10:14.936Z,79.40
2019-03-09T14:12:41.768Z,79.70
2019-03-09T14:15:15.178Z,79.50
2019-03-09T14:17:42.113Z,79.90
2019-03-09T14:20:10.837Z,79.90
2019-03-09T14:22:37.631Z,80.40
2019-03-09T14:25:06.452Z,80.50
2019-03-09T14:27:33.248Z,81.30
2019-03-09T14:30:00.065Z,81.50
2019-03-09T14:32:26.850Z,81.70
2019-03-09T14:34:53.669Z,81.30
2019-03-09T14:37:20.448Z,81.60
2019-03-09T14:39:47.260Z,81.80
2019-03-09T14:42:14.041Z,81.80
2019-03-09T14:44:40.908Z,81.80
2019-03-09T14:47:07.697Z,82.00
2019-03-09T14:49:34.512Z,82.10
2019-03-09T14:52:01.294Z,82.00
2019-03-09T14:54:28.089Z,82.10
2019-03-09T14:56:54.897Z,82.30
2019-03-09T14:59:22.172Z,82.40
2019-03-09T15:01:48.986Z,82.00
2019-03-09T15:04:15.810Z,82.40
2019-03-09T15:06:42.610Z,82.40
2019-03-09T15:09:09.424Z,82.60
2019-03-09T15:11:36.209Z,82.70
2019-03-09T15:14:03.124Z,83.00
2019-03-09T15:16:29.947Z,82.70
2019-03-09T15:18:56.732Z,82.90
2019-03-09T15:21:24.110Z,83.30
2019-03-09T15:23:51.131Z,83.60
2019-03-09T15:26:17.945Z,83.80
2019-03-09T15:28:44.742Z,83.30
2019-03-09T15:31:11.592Z,83.80
2019-03-09T15:33:38.404Z,83.40
2019-03-09T15:36:05.185Z,83.80
2019-03-09T15:38:32.006Z,83.20
2019-03-09T15:40:58.809Z,83.60
2019-03-09T15:43:25.616Z,83.60
2019-03-09T15:45:52.495Z,83.30
2019-03-09T15:48:19.304Z,83.30
2019-03-09T15:50:46.120Z,83.30
2019-03-09T15:53:32.647Z,84.30
2019-03-09T15:55:59.468Z,84.00
2019-03-09T15:58:26.256Z,83.90
2019-03-09T16:00:53.083Z,84.00
2019-03-09T16:03:19.940Z,84.00
2019-03-09T16:05:46.722Z,84.00
2019-03-09T16:08:13.537Z,85.20
2019-03-09T16:10:40.321Z,87.20
2019-03-09T16:13:07.149Z,89.60
2019-03-09T16:15:33.924Z,92.30
2019-03-09T16:18:00.749Z,93.40
2019-03-09T16:20:28.632Z,94.50
2019-03-09T16:22:55.656Z,93.30
2019-03-09T16:25:22.441Z,95.60
2019-03-09T16:27:49.260Z,95.40
2019-03-09T16:30:18.482Z,96.30
2019-03-09T16:32:47.244Z,94.50
2019-03-09T16:35:14.055Z,93.70
2019-03-09T16:37:40.880Z,93.50
2019-03-09T16:40:10.573Z,93.30
2019-03-09T16:42:37.392Z,93.10
2019-03-09T16:45:05.178Z,93.20
2019-03-09T16:47:32.037Z,92.40
2019-03-09T16:49:58.826Z,92.70
2019-03-09T16:52:25.644Z,93.20
2019-03-09T16:54:52.440Z,93.60
2019-03-09T16:57:19.256Z,92.90
2019-03-09T16:59:46.038Z,93.60
2019-03-09T17:02:12.855Z,92.60
2019-03-09T17:04:39.678Z,92.90
2019-03-09T17:07:06.456Z,92.40
2019-03-09T17:09:33.289Z,91.90
2019-03-09T17:12:00.069Z,91.90
2019-03-09T17:14:26.897Z,91.50
2019-03-09T17:16:53.721Z,91.70
2019-03-09T17:19:20.516Z,91.40
2019-03-09T17:21:47.346Z,91.10
2019-03-09T17:24:14.133Z,91.60
2019-03-09T17:26:40.966Z,90.70
2019-03-09T17:29:07.788Z,90.80
2019-03-09T17:31:34.563Z,90.80
2019-03-09T17:34:01.380Z,90.90
2019-03-09T17:36:28.165Z,91.60
2019-03-09T17:38:55.138Z,90.60
2019-03-09T17:41:21.904Z,91.20
2019-03-09T17:43:48.737Z,91.00
2019-03-09T17:46:15.553Z,90.10
2019-03-09T17:48:42.346Z,89.90
2019-03-09T17:51:09.164Z,89.90
2019-03-09T17:53:35.945Z,89.80
2019-03-09T17:56:02.769Z,89.50
2019-03-09T17:58:29.592Z,90.10
2019-03-09T18:00:56.382Z,90.30
2019-03-09T18:03:23.197Z,90.50
2019-03-09T18:05:50.024Z,90.50
2019-03-09T18:08:16.939Z,90.70
2019-03-09T18:10:49.344Z,90.30
2019-03-09T18:13:16.129Z,90.30
2019-03-09T18:15:42.944Z,90.30
2019-03-09T18:18:09.724Z,90.90
2019-03-09T18:20:37.432Z,91.00
2019-03-09T18:23:04.212Z,90.70
2019-03-09T18:25:31.030Z,90.60
2019-03-09T18:27:57.854Z,90.90
2019-03-09T18:30:24.683Z,90.90
2019-03-09T18:32:51.501Z,91.00
2019-03-09T18:35:18.485Z,91.10
2019-03-09T18:37:45.312Z,90.20
2019-03-09T18:40:13.902Z,90.40
2019-03-09T18:42:40.720Z,90.20
2019-03-09T18:45:19.144Z,89.90
2019-03-09T18:47:45.958Z,89.90
2019-03-09T18:50:13.082Z,90.20
2019-03-09T18:52:40.093Z,90.40
2019-03-09T18:55:07.628Z,90.40
2019-03-09T18:57:34.422Z,90.00
2019-03-09T19:00:01.440Z,90.20
2019-03-09T19:02:28.225Z,89.90
2019-03-09T19:04:55.050Z,89.70
2019-03-09T19:07:21.871Z,89.40
2019-03-09T19:09:48.653Z,89.00
2019-03-09T19:12:15.486Z,88.70
2019-03-09T19:14:42.303Z,89.00
2019-03-09T19:17:09.087Z,89.10
2019-03-09T19:19:35.919Z,88.90
2019-03-09T19:22:02.807Z,88.50
2019-03-09T19:24:29.584Z,88.70
2019-03-09T19:26:56.405Z,88.30
2019-03-09T19:29:23.253Z,89.20
2019-03-09T19:31:50.040Z,88.90
2019-03-09T19:34:16.865Z,88.60
2019-03-09T19:36:43.649Z,88.50
2019-03-09T19:39:10.500Z,88.20
2019-03-09T19:41:37.289Z,88.20
2019-03-09T19:44:04.108Z,87.30
2019-03-09T19:46:30.949Z,87.50
2019-03-09T19:48:57.732Z,86.30
2019-03-09T19:51:24.768Z,86.30
2019-03-09T19:53:51.660Z,86.10
2019-03-09T19:56:18.478Z,85.60
2019-03-09T19:58:45.341Z,85.40
2019-03-09T20:01:12.152Z,85.70
2019-03-09T20:03:38.970Z,86.30
2019-03-09T20:06:05.764Z,86.40
2019-03-09T20:08:32.579Z,86.30
2019-03-09T20:10:59.485Z,86.70
2019-03-09T20:13:26.271Z,86.20
2019-03-09T20:15:53.168Z,86.20
2019-03-09T20:18:20.061Z,85.40
2019-03-09T20:20:46.846Z,84.30
2019-03-09T20:23:13.669Z,83.70
2019-03-09T20:25:40.484Z,83.60
2019-03-09T20:28:07.341Z,83.20
2019-03-09T20:30:34.152Z,82.90
2019-03-09T20:33:00.972Z,82.60
2019-03-09T20:35:27.772Z,82.10
2019-03-09T20:37:56.341Z,81.80
2019-03-09T20:40:23.246Z,80.70
2019-03-09T20:42:50.081Z,81.00
2019-03-09T20:45:21.546Z,81.30
2019-03-09T20:47:48.376Z,81.10
2019-03-09T20:50:16.469Z,81.00
2019-03-09T20:52:43.294Z,81.10
2019-03-09T20:55:10.110Z,81.20
2019-03-09T20:57:36.893Z,80.60
2019-03-09T21:00:12.313Z,80.10
2019-03-09T21:02:39.809Z,80.70
2019-03-09T21:05:06.721Z,80.40
2019-03-09T21:07:33.545Z,79.90
2019-03-09T21:10:00.379Z,80.50
2019-03-09T21:12:27.172Z,80.60
2019-03-09T21:14:53.988Z,80.80
2019-03-09T21:17:20.775Z,80.90
2019-03-09T21:19:48.361Z,80.90
2019-03-09T21:22:15.180Z,80.50
2019-03-09T21:24:41.977Z,80.20
2019-03-09T21:27:09.111Z,79.80
2019-03-09T21:29:35.933Z,79.80
2019-03-09T21:32:02.714Z,79.90
2019-03-09T21:34:29.734Z,80.30
2019-03-09T21:36:56.585Z,80.90
2019-03-09T21:39:23.440Z,80.10
2019-03-09T21:41:50.312Z,80.10
2019-03-09T21:44:17.128Z,80.60
2019-03-09T21:46:43.945Z,80.60
2019-03-09T21:49:11.921Z,80.70
2019-03-09T21:51:38.746Z,80.90
2019-03-09T21:54:05.572Z,80.20
2019-03-09T21:56:32.389Z,80.40
2019-03-09T21:58:59.168Z,80.80
2019-03-09T22:01:25.993Z,80.60
2019-03-09T22:03:52.813Z,80.70
2019-03-09T22:06:19.593Z,80.80
2019-03-09T22:08:46.855Z,81.10
2019-03-09T22:11:13.645Z,81.40
2019-03-09T22:13:40.468Z,81.50
2019-03-09T22:16:07.253Z,82.00
2019-03-09T22:18:34.070Z,82.50
2019-03-09T22:21:00.848Z,82.80
2019-03-09T22:23:27.660Z,83.10
2019-03-09T22:25:54.460Z,83.20
2019-03-09T22:28:21.285Z,83.50
2019-03-09T22:30:48.178Z,83.90
2019-03-09T22:33:14.989Z,84.00
2019-03-09T22:35:41.764Z,84.10
2019-03-09T22:38:08.550Z,84.40
2019-03-09T22:40:35.401Z,84.60
2019-03-09T22:43:02.195Z,84.70
2019-03-09T22:45:29.013Z,84.70
2019-03-09T22:47:55.787Z,84.70
2019-03-09T22:50:24.420Z,84.90
2019-03-09T22:52:51.205Z,84.70
2019-03-09T22:55:18.020Z,84.80
2019-03-09T22:57:44.821Z,84.80
2019-03-09T23:00:17.149Z,85.40
2019-03-09T23:02:45.006Z,85.40
2019-03-09T23:05:12.464Z,85.60
2019-03-09T23:07:39.289Z,86.00
2019-03-09T23:10:14.319Z,85.60
2019-03-09T23:12:41.141Z,86.00
2019-03-09T23:15:10.976Z,86.30
2019-03-09T23:17:37.757Z,86.40
2019-03-09T23:20:09.728Z,86.20
2019-03-09T23:22:36.517Z,86.30
2019-03-09T23:25:04.041Z,86.60
2019-03-09T23:27:30.820Z,86.30
2019-03-09T23:29:57.644Z,86.30
2019-03-09T23:32:24.441Z,86.50
2019-03-09T23:34:51.268Z,86.50
2019-03-09T23:37:18.090Z,86.50
2019-03-09T23:39:44.900Z,86.40
2019-03-09T23:42:11.737Z,86.50
2019-03-09T23:44:38.522Z,86.50
2019-03-09T23:47:05.342Z,86.60
2019-03-09T23:49:32.121Z,86.70
2019-03-09T23:51:58.953Z,86.70
2019-03-09T23:54:25.769Z,86.80
2019-03-09T23:56:52.554Z,86.90
2019-03-09T23:59:19.369Z,86.90
